Meteo Giornale » Osservazioni meteo Italia » Cagliari-Elmas

ore: 07:50 - Osservazioni Meteo Cagliari-Elmas
Lat. 39° 15' N Lon. 9° 4' E Alt. 4 metri s.l.m.

poco_nuvoloso Europe/Rome

11 °C

Poco Nuvoloso

Temp. 24 Ore

8 °C

16 °C

Ovest

9.3 Km/h

Dew point 6 °C

Umidità 71 %

Visibilità  10 Km

Il sole sorge alle ore 07:38

Il sole tramonta alle ore 17:29

Data e Ora Cielo e Fenomeni T °C DP °C Um. % Pres. hPa Vis. km Vento km/h
Oggi h: 07:50 poco_nuvoloso Poco Nuvoloso 11 6 71 1028 10 O 9.3
Oggi h: 07:20 poco_nuvoloso Poco Nuvoloso 11 6 71 1027 10 O/NO 7.4
Oggi h: 06:50 poco_nuvoloso Poco Nuvoloso 11 7 76 1027 10 O/NO 9.3
Oggi h: 06:20 poco_nuvoloso Poco Nuvoloso 11 7 76 1027 10 O/NO 11.1
Oggi h: 05:50 poco_nuvoloso Poco Nuvoloso 11 7 76 1026 10 O/NO 14.8
Oggi h: 04:50 poco_nuvoloso Poco Nuvoloso 11 8 81 1026 10 O/NO 11.1
Oggi h: 04:20 poco_nuvoloso Poco Nuvoloso 12 8 76 1026 10 O/NO 14.8
Oggi h: 03:50 poco_nuvoloso Poco Nuvoloso 12 8 76 1026 10 N/NO 27.8
Oggi h: 03:20 poco_nuvoloso Poco Nuvoloso 12 8 76 1027 10 NO 16.7
Oggi h: 02:50 poco_nuvoloso Poco Nuvoloso 12 10 87 1027 10 N/NO 13
Oggi h: 02:20 poco_nuvoloso Poco Nuvoloso 12 10 87 1026 10 NO 7.4
Oggi h: 01:50 poco_nuvoloso Poco Nuvoloso 10 9 93 1026 10 N 1.8
Oggi h: 01:20 nuvoloso Nuvoloso 10 9 93 1027 10 N 5.5
Oggi h: 00:50 nuvoloso Nuvoloso 11 9 87 1027 10 N 3.7
Ieri h: 23:50 nuvoloso Nuvoloso 11 9 87 1028 10 N 3.7
Ieri h: 23:20 nuvoloso Nuvoloso 11 9 87 1028 10 N/NO 7.4
Ieri h: 22:50 nuvoloso Nuvoloso 12 9 81 1028 10 NO 9.3
Ieri h: 22:20 sereno Sereno 10 9 93 1028 10 NO 7.4
Ieri h: 21:50 sereno Sereno 11 9 87 1028 10 N 3.7
Ieri h: 20:50 poco_nuvoloso Poco Nuvoloso 11 9 87 1028 10 N 5.5
Ieri h: 20:20 poco_nuvoloso Poco Nuvoloso 12 9 81 1028 10 NO 7.4
Ieri h: 19:50 nuvoloso Nuvoloso 13 9 76 1028 10 NO 7.4
Ieri h: 19:20 poco_nuvoloso Poco Nuvoloso 13 9 76 1028 10 NO 7.4
Ieri h: 18:50 poco_nuvoloso Poco Nuvoloso 13 9 76 1028 10 N/NO 7.4
Ieri h: 18:20 poco_nuvoloso Poco Nuvoloso 12 8 76 1028 10 NO 11.1
Ieri h: 17:50 nuvoloso Nuvoloso 12 9 81 1027 10 N 3.7
Ieri h: 17:20 nuvoloso Nuvoloso 13 10 81 1027 10 N 3.7
Ieri h: 16:50 nuvoloso Nuvoloso 13 10 81 1027 10 S/SO 7.4
Ieri h: 16:20 nuvoloso Nuvoloso 14 9 71 1027 10 N 5.5
Ieri h: 15:50 poco_nuvoloso Poco Nuvoloso 15 9 67 1027 10 N 5.5
Ieri h: 15:20 poco_nuvoloso Poco Nuvoloso 14 8 67 1027 10 S/SO 9.3
Ieri h: 14:50 poco_nuvoloso Poco Nuvoloso 15 9 67 1027 10 S 9.3
Ieri h: 14:20 poco_nuvoloso Poco Nuvoloso 16 6 51 1027 10 N 3.7
Ieri h: 13:50 poco_nuvoloso Poco Nuvoloso 16 6 51 1027 10 N 9.3
Ieri h: 13:20 poco_nuvoloso Poco Nuvoloso 16 8 58 1028 10 NO 9.3
Ieri h: 12:50 poco_nuvoloso Poco Nuvoloso 15 9 67 1028 10 NO 7.4
Ieri h: 12:20 nuvoloso Nuvoloso 14 7 62 1029 10 N 7.4
Ieri h: 11:50 molto_nuvoloso Molto Nuvoloso 13 8 71 1029 9 N 5.5
Ieri h: 11:20 molto_nuvoloso Molto Nuvoloso 12 8 76 1029 9 N 3.7
Ieri h: 10:50 molto_nuvoloso Molto Nuvoloso 10 8 87 1029 10 N 5.5
Ieri h: 10:20 molto_nuvoloso Molto Nuvoloso 10 7 81 1029 10 N 5.5
Ieri h: 09:20 molto_nuvoloso Molto Nuvoloso 9 7 87 1029 10 N/NO 7.4
Ieri h: 08:50 molto_nuvoloso Molto Nuvoloso 9 7 87 1029 10 N/NO 7.4
Ieri h: 08:20 molto_nuvoloso Molto Nuvoloso 9 6 81 1029 10 N/NO 7.4
Ieri h: 07:50 molto_nuvoloso Molto Nuvoloso 8 7 93 1029 10 N 9.3